Time;durP1;ratioP1;P1;durP2;ratioP2;P2;SDS_P1;SDS_P2;PMS_P1;PMS_P2;Temp;Humidity;BMP_temperature;BMP_pressure;BME280_temperature;BME280_humidity;BME280_pressure;Samples;Min_cycle;Max_cycle;Signal;HPM_P1;HPM_P2
2023/12/18 00:00:37;;;;;;;11.38;6.97;;;3.80;70.30;;;;;;2290924;56;20946;-67
2023/12/18 00:03:04;;;;;;;12.02;7.10;;;3.80;70.30;;;;;;2526842;54;20938;-67
2023/12/18 00:05:31;;;;;;;11.82;7.05;;;3.80;70.30;;;;;;2489773;54;20998;-67
2023/12/18 00:07:58;;;;;;;9.85;6.20;;;3.80;70.30;;;;;;2488686;54;20998;-67
2023/12/18 00:10:25;;;;;;;12.32;7.18;;;3.80;70.30;;;;;;2261275;56;21061;-67
2023/12/18 00:12:51;;;;;;;11.38;6.10;;;3.80;70.30;;;;;;2261522;56;21004;-67
2023/12/18 00:15:18;;;;;;;11.63;6.60;;;3.80;70.40;;;;;;2261363;56;20957;-66
2023/12/18 00:17:44;;;;;;;10.10;5.85;;;3.70;70.40;;;;;;2261283;56;20974;-67
2023/12/18 00:20:11;;;;;;;10.38;5.45;;;3.80;70.50;;;;;;2490181;54;21447;-67
2023/12/18 00:22:37;;;;;;;9.70;5.80;;;3.70;70.50;;;;;;2490049;54;20998;-67
2023/12/18 00:25:04;;;;;;;8.05;5.15;;;3.70;70.50;;;;;;2261732;56;20940;-67
2023/12/18 00:27:30;;;;;;;7.93;5.25;;;3.70;70.50;;;;;;2490510;55;20990;-67
2023/12/18 00:29:57;;;;;;;10.23;6.10;;;3.70;70.50;;;;;;2262869;55;21526;-67
2023/12/18 00:32:24;;;;;;;9.82;6.32;;;3.70;70.40;;;;;;2282766;55;21076;-66
2023/12/18 00:34:50;;;;;;;9.65;6.05;;;3.70;70.50;;;;;;2301078;55;20967;-66
2023/12/18 00:37:17;;;;;;;10.48;5.47;;;3.60;70.40;;;;;;2301067;55;20994;-66
2023/12/18 00:39:43;;;;;;;11.15;6.75;;;3.70;70.50;;;;;;2300955;55;20991;-67
2023/12/18 00:42:11;;;;;;;11.00;6.40;;;3.70;70.50;;;;;;2300373;56;21464;-67
2023/12/18 00:44:38;;;;;;;11.40;5.97;;;3.70;70.50;;;;;;2537789;54;21255;-67
2023/12/18 00:47:04;;;;;;;9.02;5.30;;;3.70;70.50;;;;;;2538292;54;20939;-67
2023/12/18 00:49:32;;;;;;;9.93;5.30;;;3.70;70.50;;;;;;2301186;55;20959;-66
2023/12/18 00:51:59;;;;;;;8.70;5.20;;;3.70;70.50;;;;;;2301120;55;20924;-67
2023/12/18 00:54:25;;;;;;;10.15;5.10;;;3.70;70.40;;;;;;2537672;54;20983;-66
2023/12/18 00:56:55;;;;;;;9.75;5.20;;;3.70;70.30;;;;;;2300595;56;21035;-67
2023/12/18 00:59:21;;;;;;;10.57;5.37;;;3.70;70.30;;;;;;2301112;56;20952;-67
2023/12/18 01:01:47;;;;;;;10.80;5.15;;;3.70;70.30;;;;;;2537450;54;21118;-67
2023/12/18 01:04:14;;;;;;;8.80;5.30;;;3.70;70.30;;;;;;2295621;55;20979;-66
2023/12/18 01:06:41;;;;;;;10.27;5.87;;;3.60;70.20;;;;;;2298099;56;21059;-68
2023/12/18 01:09:08;;;;;;;10.30;5.70;;;3.60;70.20;;;;;;2538409;54;20964;-67
2023/12/18 01:11:35;;;;;;;8.07;5.37;;;3.60;70.20;;;;;;2265384;56;20980;-67
2023/12/18 01:14:02;;;;;;;10.27;5.53;;;3.60;70.20;;;;;;2476520;55;21449;-67
2023/12/18 01:16:29;;;;;;;10.40;5.53;;;3.60;70.20;;;;;;2488329;54;20940;-66
2023/12/18 01:18:57;;;;;;;10.15;5.62;;;3.60;70.20;;;;;;2490822;55;21307;-67
2023/12/18 01:21:23;;;;;;;9.38;5.22;;;3.60;70.10;;;;;;2496441;55;21718;-66
2023/12/18 01:23:49;;;;;;;9.77;5.40;;;3.50;70.00;;;;;;2260882;55;21309;-66
2023/12/18 01:26:16;;;;;;;9.43;5.60;;;3.60;70.10;;;;;;2496526;55;20959;-67
2023/12/18 01:28:42;;;;;;;12.05;6.82;;;3.60;70.10;;;;;;2260074;55;21398;-66
2023/12/18 01:31:23;;;;;;;10.57;6.15;;;3.50;70.00;;;;;;2489573;55;20966;-66
2023/12/18 01:33:51;;;;;;;12.70;7.43;;;3.50;70.00;;;;;;2511650;54;20979;-66
2023/12/18 01:36:18;;;;;;;12.18;7.85;;;3.50;70.00;;;;;;2266075;56;20963;-66
2023/12/18 01:38:44;;;;;;;11.88;6.70;;;3.50;70.10;;;;;;2488999;55;21484;-67
2023/12/18 01:41:11;;;;;;;11.15;6.97;;;3.50;70.20;;;;;;2490121;55;21026;-66
2023/12/18 01:44:03;;;;;;;13.18;7.72;;;3.50;70.20;;;;;;2494915;55;21484;-67
2023/12/18 01:46:30;;;;;;;11.20;7.30;;;3.50;70.10;;;;;;2496173;55;21295;-67
2023/12/18 01:48:56;;;;;;;11.93;7.07;;;3.50;70.30;;;;;;2489292;55;21542;-66
2023/12/18 01:51:25;;;;;;;10.90;6.53;;;3.50;70.40;;;;;;2266369;56;20970;-66
2023/12/18 01:53:56;;;;;;;10.55;6.00;;;3.40;70.40;;;;;;2489314;55;21018;-67
2023/12/18 01:56:23;;;;;;;12.23;6.45;;;3.50;70.40;;;;;;2495601;55;21746;-67
2023/12/18 01:58:50;;;;;;;9.98;6.00;;;3.50;70.40;;;;;;2247303;55;20993;-67
2023/12/18 02:01:17;;;;;;;14.57;7.53;;;3.40;70.20;;;;;;2277635;55;20948;-66
2023/12/18 02:03:44;;;;;;;10.68;6.43;;;3.40;70.10;;;;;;2494164;55;20922;-66
2023/12/18 02:06:12;;;;;;;10.93;6.50;;;3.40;70.20;;;;;;2494863;55;20967;-66
2023/12/18 02:08:39;;;;;;;9.02;5.57;;;3.40;70.30;;;;;;2261543;56;22018;-66
2023/12/18 02:11:05;;;;;;;9.70;5.85;;;3.40;70.30;;;;;;2487208;54;20928;-66
2023/12/18 02:13:32;;;;;;;11.85;6.43;;;3.40;70.20;;;;;;2497025;55;21090;-67
2023/12/18 02:15:58;;;;;;;11.63;6.35;;;3.40;70.10;;;;;;2260311;55;21420;-67
2023/12/18 02:18:24;;;;;;;10.13;6.20;;;3.50;70.30;;;;;;2489697;55;20998;-66
2023/12/18 02:20:51;;;;;;;9.02;5.82;;;3.40;70.20;;;;;;2485535;54;20971;-66
2023/12/18 02:23:17;;;;;;;8.57;5.70;;;3.30;70.10;;;;;;2254552;55;20966;-66
2023/12/18 02:25:45;;;;;;;9.68;6.20;;;3.30;70.10;;;;;;2260842;55;21010;-66
2023/12/18 02:28:12;;;;;;;11.20;6.22;;;3.40;70.30;;;;;;2489773;54;21025;-67
2023/12/18 02:30:39;;;;;;;7.97;4.80;;;3.30;70.10;;;;;;2496216;55;21344;-67
2023/12/18 02:33:06;;;;;;;8.55;4.90;;;3.40;70.20;;;;;;2261086;55;21010;-67
2023/12/18 02:35:33;;;;;;;8.73;5.40;;;3.30;70.10;;;;;;2262550;55;20946;-67
2023/12/18 02:37:59;;;;;;;10.75;5.70;;;3.30;69.90;;;;;;2474098;54;21725;-67
2023/12/18 02:40:25;;;;;;;10.45;6.18;;;3.30;69.90;;;;;;2489824;54;21066;-67
2023/12/18 02:42:53;;;;;;;8.77;5.30;;;3.30;70.10;;;;;;2260438;56;21357;-67
2023/12/18 02:45:19;;;;;;;9.80;5.55;;;3.30;70.10;;;;;;2490357;55;21006;-66
2023/12/18 02:47:46;;;;;;;9.95;5.68;;;3.30;70.10;;;;;;2489550;54;20947;-66
2023/12/18 02:50:13;;;;;;;9.68;5.43;;;3.30;70.10;;;;;;2489961;54;20994;-67
2023/12/18 02:52:44;;;;;;;8.45;5.05;;;3.30;70.10;;;;;;2261825;56;21783;-66
2023/12/18 02:55:12;;;;;;;8.98;5.10;;;3.20;70.00;;;;;;2489983;55;21021;-66
2023/12/18 02:57:38;;;;;;;11.00;5.93;;;3.20;70.00;;;;;;2265451;56;20952;-66
2023/12/18 03:00:06;;;;;;;10.57;5.78;;;3.20;70.00;;;;;;2261383;56;20998;-67
2023/12/18 03:02:32;;;;;;;10.00;4.93;;;3.20;70.00;;;;;;2260903;55;20975;-66
2023/12/18 03:05:04;;;;;;;9.98;5.87;;;3.20;70.10;;;;;;2266614;56;21043;-67
2023/12/18 03:07:31;;;;;;;8.38;4.47;;;3.20;70.10;;;;;;2483606;55;21000;-66
2023/12/18 03:09:57;;;;;;;9.30;5.40;;;3.20;70.10;;;;;;2519812;54;21006;-66
2023/12/18 03:12:26;;;;;;;9.35;5.25;;;3.20;70.10;;;;;;2490001;55;20930;-66
2023/12/18 03:14:52;;;;;;;9.07;5.50;;;3.20;70.10;;;;;;2436647;55;21068;-67
2023/12/18 03:17:19;;;;;;;11.38;6.25;;;3.20;70.10;;;;;;2258824;56;21062;-66
2023/12/18 03:19:48;;;;;;;11.80;6.35;;;3.20;70.10;;;;;;2263686;56;20943;-67
2023/12/18 03:22:15;;;;;;;11.55;5.72;;;3.20;70.10;;;;;;2260842;56;21022;-66
2023/12/18 03:24:42;;;;;;;10.82;5.78;;;3.20;70.10;;;;;;2260382;56;20978;-66
2023/12/18 03:27:10;;;;;;;8.77;4.80;;;3.20;70.10;;;;;;2263962;56;21483;-66
2023/12/18 03:29:38;;;;;;;8.20;4.68;;;3.20;70.00;;;;;;2481032;55;20911;-66
2023/12/18 03:32:05;;;;;;;9.02;5.43;;;3.20;70.00;;;;;;2478880;55;20983;-67
2023/12/18 03:34:32;;;;;;;8.60;4.80;;;3.20;70.00;;;;;;2482474;55;21085;-66
2023/12/18 03:36:59;;;;;;;8.23;4.45;;;3.20;70.10;;;;;;2456701;55;21035;-66
2023/12/18 03:39:25;;;;;;;8.30;4.75;;;3.10;70.00;;;;;;2254199;55;21531;-66
2023/12/18 03:41:52;;;;;;;8.13;4.50;;;3.10;70.00;;;;;;2536873;54;20932;-67
2023/12/18 03:44:18;;;;;;;8.70;5.07;;;3.10;70.00;;;;;;2292106;55;21844;-66
2023/12/18 03:46:45;;;;;;;6.95;4.05;;;3.10;69.90;;;;;;2296803;56;21031;-67
2023/12/18 03:49:11;;;;;;;8.57;4.55;;;3.10;70.00;;;;;;2300853;55;20951;-66
2023/12/18 03:51:37;;;;;;;8.40;4.40;;;3.10;70.00;;;;;;2300384;55;20951;-67
2023/12/18 03:54:04;;;;;;;7.37;3.75;;;3.10;70.00;;;;;;2537580;54;20976;-67
2023/12/18 03:56:30;;;;;;;8.02;4.15;;;3.10;70.00;;;;;;2537111;54;20988;-66
2023/12/18 03:58:57;;;;;;;10.73;4.53;;;3.10;70.00;;;;;;2299557;56;21007;-67
2023/12/18 04:01:23;;;;;;;9.60;4.50;;;3.00;69.90;;;;;;2301404;56;20971;-66
2023/12/18 04:03:49;;;;;;;9.15;4.62;;;3.00;70.00;;;;;;2536774;54;21015;-70
2023/12/18 04:06:16;;;;;;;9.90;4.90;;;3.10;70.00;;;;;;2300664;55;21090;-66
2023/12/18 04:08:42;;;;;;;7.85;4.12;;;3.00;70.00;;;;;;2536933;54;21015;-66
2023/12/18 04:11:15;;;;;;;8.00;4.32;;;3.00;70.00;;;;;;2538215;54;20999;-67
2023/12/18 04:13:42;;;;;;;9.30;4.90;;;3.00;70.00;;;;;;2300190;55;20971;-66
2023/12/18 04:16:10;;;;;;;9.07;4.53;;;3.00;70.00;;;;;;2299851;55;21840;-66
2023/12/18 04:18:38;;;;;;;7.57;4.05;;;3.00;70.00;;;;;;2536925;54;21092;-67
2023/12/18 04:21:04;;;;;;;6.95;3.80;;;3.00;70.00;;;;;;2300536;56;20963;-66
2023/12/18 04:23:34;;;;;;;7.57;4.25;;;3.00;70.00;;;;;;2300745;56;20992;-66
2023/12/18 04:26:01;;;;;;;8.93;4.37;;;3.00;69.90;;;;;;2537508;54;21055;-67
2023/12/18 04:28:27;;;;;;;7.12;3.65;;;3.00;69.80;;;;;;2537723;54;20947;-66
2023/12/18 04:30:55;;;;;;;7.22;3.70;;;3.00;69.80;;;;;;2536917;54;20951;-67
2023/12/18 04:33:21;;;;;;;7.87;4.22;;;3.00;69.80;;;;;;2537017;54;20987;-66
2023/12/18 04:35:48;;;;;;;7.03;4.12;;;3.00;69.80;;;;;;2537865;54;21467;-66
2023/12/18 04:38:14;;;;;;;10.02;4.72;;;2.90;69.70;;;;;;2300949;56;21026;-66
2023/12/18 04:40:40;;;;;;;9.90;4.60;;;3.00;69.80;;;;;;2300667;55;21624;-66
2023/12/18 04:43:08;;;;;;;7.72;4.03;;;2.90;69.80;;;;;;2519045;54;21412;-68
2023/12/18 04:45:35;;;;;;;7.37;4.00;;;2.90;69.80;;;;;;2538128;54;20991;-66
2023/12/18 04:48:03;;;;;;;7.87;4.03;;;2.90;69.90;;;;;;2300237;56;21019;-66
2023/12/18 04:50:31;;;;;;;8.45;3.87;;;2.90;69.90;;;;;;2300975;56;21003;-66
2023/12/18 04:52:57;;;;;;;8.82;4.00;;;2.90;69.90;;;;;;2301037;56;21587;-66
2023/12/18 04:55:24;;;;;;;8.32;4.10;;;2.90;69.90;;;;;;2538092;54;21021;-67
2023/12/18 04:57:50;;;;;;;7.62;3.58;;;2.90;69.90;;;;;;2300619;55;21516;-66
2023/12/18 05:00:19;;;;;;;6.62;3.70;;;2.90;69.90;;;;;;2249371;57;20968;-66
2023/12/18 05:02:47;;;;;;;6.45;3.03;;;2.90;69.90;;;;;;2282647;54;21002;-66
2023/12/18 05:05:15;;;;;;;5.45;3.10;;;2.90;69.80;;;;;;2250045;56;21002;-66
2023/12/18 05:07:41;;;;;;;8.50;4.20;;;2.90;69.90;;;;;;2261450;56;21171;-67
2023/12/18 05:10:08;;;;;;;7.12;3.80;;;2.90;69.90;;;;;;2260802;56;20971;-66
2023/12/18 05:12:35;;;;;;;8.05;4.20;;;2.90;69.80;;;;;;2489946;54;20975;-66
2023/12/18 05:15:01;;;;;;;8.35;4.60;;;2.80;69.70;;;;;;2260469;56;20975;-67
2023/12/18 05:17:28;;;;;;;8.88;4.60;;;2.80;69.80;;;;;;2490175;54;21115;-67
2023/12/18 05:19:55;;;;;;;9.38;4.90;;;2.80;69.80;;;;;;2253027;56;20943;-66
2023/12/18 05:22:21;;;;;;;8.60;4.30;;;2.80;69.80;;;;;;2261784;56;21047;-66
2023/12/18 05:24:48;;;;;;;8.40;4.60;;;2.80;69.80;;;;;;2260483;56;21041;-66
2023/12/18 05:27:17;;;;;;;7.97;4.53;;;2.80;70.10;;;;;;2494664;55;20956;-67
2023/12/18 05:29:46;;;;;;;8.90;4.97;;;2.80;69.70;;;;;;2490316;54;20991;-67
2023/12/18 05:32:13;;;;;;;8.00;4.57;;;2.80;69.70;;;;;;2257459;55;21385;-66
2023/12/18 05:34:40;;;;;;;7.37;4.12;;;2.80;69.70;;;;;;2454470;55;20999;-66
2023/12/18 05:37:06;;;;;;;8.23;4.68;;;2.80;69.70;;;;;;2486910;55;21448;-66
2023/12/18 05:39:33;;;;;;;8.10;4.57;;;2.80;69.70;;;;;;2244468;55;21008;-66
2023/12/18 05:42:00;;;;;;;8.07;4.40;;;2.80;69.70;;;;;;2286555;56;21000;-67
2023/12/18 05:44:26;;;;;;;9.02;4.05;;;2.80;69.70;;;;;;2286336;55;21004;-66
2023/12/18 05:46:53;;;;;;;8.57;4.30;;;2.80;69.70;;;;;;2520108;54;20967;-66
2023/12/18 05:49:19;;;;;;;8.60;4.40;;;2.80;69.60;;;;;;2260925;56;20945;-67
2023/12/18 05:51:49;;;;;;;7.65;4.07;;;2.70;69.50;;;;;;2266960;56;21042;-66
2023/12/18 05:54:18;;;;;;;9.90;5.10;;;2.70;69.60;;;;;;2247811;56;20927;-67
2023/12/18 05:56:44;;;;;;;8.77;4.90;;;2.70;69.50;;;;;;2260657;56;21055;-66
2023/12/18 05:59:10;;;;;;;9.55;4.90;;;2.70;69.50;;;;;;2487523;54;20964;-66
2023/12/18 06:01:37;;;;;;;9.18;4.62;;;2.70;69.50;;;;;;2259076;55;20946;-66
2023/12/18 06:04:03;;;;;;;8.82;4.70;;;2.70;69.50;;;;;;2483404;55;21630;-66
2023/12/18 06:06:30;;;;;;;8.23;4.43;;;2.70;69.60;;;;;;2249749;55;21047;-67
2023/12/18 06:08:57;;;;;;;7.80;4.18;;;2.60;69.50;;;;;;2259993;56;20970;-68
2023/12/18 06:11:23;;;;;;;8.68;3.85;;;2.70;69.70;;;;;;2233056;56;20986;-66
2023/12/18 06:13:52;;;;;;;8.45;4.12;;;2.60;70.20;;;;;;2446457;55;20923;-67
2023/12/18 06:16:18;;;;;;;9.18;4.57;;;2.60;69.60;;;;;;2495267;55;21287;-66
2023/12/18 06:18:46;;;;;;;7.85;4.03;;;2.60;69.60;;;;;;2484025;55;21042;-68
2023/12/18 06:21:13;;;;;;;8.88;4.35;;;2.60;69.60;;;;;;2259390;56;21072;-66
2023/12/18 06:23:42;;;;;;;7.93;4.07;;;2.60;69.70;;;;;;2281379;56;20949;-66
2023/12/18 06:26:09;;;;;;;6.35;3.42;;;2.60;69.70;;;;;;2285894;56;21011;-66
2023/12/18 06:28:38;;;;;;;10.98;4.00;;;2.60;69.70;;;;;;2521744;54;21885;-67
2023/12/18 06:31:05;;;;;;;9.60;4.75;;;2.60;69.60;;;;;;2287050;56;21059;-67
2023/12/18 06:33:33;;;;;;;8.18;4.22;;;2.60;69.70;;;;;;2520434;55;20936;-66
2023/12/18 06:35:59;;;;;;;7.82;4.25;;;2.60;69.70;;;;;;2286169;56;21007;-66
2023/12/18 06:38:26;;;;;;;6.93;3.85;;;2.60;69.60;;;;;;2521494;54;21413;-67
2023/12/18 06:40:55;;;;;;;8.80;4.70;;;2.50;69.50;;;;;;2489533;54;21070;-66
2023/12/18 06:43:23;;;;;;;9.38;4.35;;;2.50;69.50;;;;;;2261201;56;20934;-66
2023/12/18 06:45:50;;;;;;;8.40;4.28;;;2.60;69.60;;;;;;2260803;56;21453;-67
2023/12/18 06:48:17;;;;;;;7.57;3.87;;;2.50;69.50;;;;;;2489413;54;21085;-66
2023/12/18 06:50:43;;;;;;;7.82;3.60;;;2.50;69.50;;;;;;2261635;56;21003;-67
2023/12/18 06:53:10;;;;;;;8.85;4.50;;;2.50;69.50;;;;;;2261336;56;21666;-66
2023/12/18 06:55:38;;;;;;;10.68;4.82;;;2.50;69.50;;;;;;2260954;56;21040;-66
2023/12/18 06:58:08;;;;;;;7.45;4.05;;;2.50;69.60;;;;;;2261129;56;21761;-66
2023/12/18 07:00:45;;;;;;;9.57;4.65;;;2.50;69.50;;;;;;2489644;54;21015;-66
2023/12/18 07:03:15;;;;;;;11.15;4.60;;;2.50;69.40;;;;;;2260875;56;20992;-67
2023/12/18 07:05:43;;;;;;;10.87;5.83;;;2.50;69.50;;;;;;2261708;56;21427;-66
2023/12/18 07:08:09;;;;;;;10.00;4.78;;;2.50;69.40;;;;;;2489189;55;21968;-66
2023/12/18 07:10:37;;;;;;;7.55;4.00;;;2.50;69.50;;;;;;2261419;55;20971;-67
2023/12/18 07:13:03;;;;;;;9.32;4.35;;;2.50;69.50;;;;;;2261007;56;21483;-67
2023/12/18 07:15:30;;;;;;;8.10;4.40;;;2.40;69.40;;;;;;2261163;56;21026;-67
2023/12/18 07:17:59;;;;;;;7.97;3.97;;;2.40;69.40;;;;;;2489558;55;20994;-66
2023/12/18 07:20:26;;;;;;;8.80;3.85;;;2.40;69.50;;;;;;2504273;54;20984;-66
2023/12/18 07:22:53;;;;;;;8.98;4.03;;;2.40;69.50;;;;;;2254726;55;21039;-67
2023/12/18 07:25:20;;;;;;;9.07;4.22;;;2.40;69.50;;;;;;2253868;55;21408;-66
2023/12/18 07:27:48;;;;;;;7.37;3.87;;;2.40;69.50;;;;;;2494997;54;21039;-66
2023/12/18 07:30:14;;;;;;;8.88;4.43;;;2.40;69.50;;;;;;2489027;54;21314;-66
2023/12/18 07:32:41;;;;;;;9.73;4.90;;;2.40;69.40;;;;;;2261229;56;21033;-67
2023/12/18 07:35:08;;;;;;;9.95;5.07;;;2.40;69.50;;;;;;2488845;54;20975;-67
2023/12/18 07:37:36;;;;;;;8.93;4.60;;;2.40;69.60;;;;;;2484638;55;20979;-66
2023/12/18 07:40:04;;;;;;;10.02;4.75;;;2.40;69.60;;;;;;2476521;55;21762;-67
2023/12/18 07:42:31;;;;;;;9.25;4.80;;;2.40;69.70;;;;;;2489478;55;20958;-67
2023/12/18 07:44:58;;;;;;;10.25;5.15;;;2.40;69.70;;;;;;2489358;55;21015;-66
2023/12/18 07:47:25;;;;;;;8.55;4.80;;;2.40;69.60;;;;;;2261192;55;21079;-67
2023/12/18 07:49:51;;;;;;;9.65;4.43;;;2.40;69.70;;;;;;2261094;55;20962;-66
2023/12/18 07:52:20;;;;;;;8.98;5.25;;;2.40;69.60;;;;;;2266761;56;21056;-67
2023/12/18 07:54:48;;;;;;;8.30;4.47;;;2.30;69.60;;;;;;2247860;55;21042;-67
2023/12/18 07:57:16;;;;;;;10.45;4.93;;;2.40;69.70;;;;;;2492372;55;20970;-66
2023/12/18 07:59:45;;;;;;;9.00;4.90;;;2.40;69.70;;;;;;2490338;55;20970;-66
2023/12/18 08:02:13;;;;;;;11.73;5.95;;;2.30;69.60;;;;;;2260191;55;21694;-67
2023/12/18 08:04:39;;;;;;;9.63;5.40;;;2.40;69.70;;;;;;2261386;56;21010;-66
2023/12/18 08:07:06;;;;;;;10.20;5.65;;;2.40;69.70;;;;;;2489067;54;21054;-67
2023/12/18 08:09:33;;;;;;;9.65;4.93;;;2.40;69.70;;;;;;2260903;56;20962;-66
2023/12/18 08:11:59;;;;;;;7.97;4.68;;;2.30;69.70;;;;;;2489555;55;20927;-66
2023/12/18 08:14:27;;;;;;;7.78;4.85;;;2.30;69.70;;;;;;2443433;55;21559;-67
2023/12/18 08:16:53;;;;;;;8.57;4.47;;;2.40;69.90;;;;;;2254929;55;21066;-66
2023/12/18 08:19:20;;;;;;;8.00;4.30;;;2.40;69.90;;;;;;2482230;55;21590;-66
2023/12/18 08:21:46;;;;;;;9.85;4.35;;;2.30;69.80;;;;;;2497886;55;20986;-67
2023/12/18 08:24:13;;;;;;;9.30;4.57;;;2.40;69.80;;;;;;2491493;54;20951;-67
2023/12/18 08:26:41;;;;;;;12.60;5.60;;;2.40;69.80;;;;;;2492918;55;20974;-66
2023/12/18 08:29:07;;;;;;;8.15;4.53;;;2.40;69.80;;;;;;2260683;56;21054;-66
2023/12/18 08:31:35;;;;;;;9.55;5.20;;;2.40;69.90;;;;;;2265393;56;20958;-66
2023/12/18 08:34:01;;;;;;;9.57;5.60;;;2.40;69.90;;;;;;2495554;54;20948;-67
2023/12/18 08:36:30;;;;;;;9.57;5.32;;;2.40;69.90;;;;;;2262061;56;20929;-66
2023/12/18 08:38:56;;;;;;;12.20;6.28;;;2.40;70.00;;;;;;2264199;55;21010;-66
2023/12/18 08:41:22;;;;;;;10.63;5.47;;;2.40;70.00;;;;;;2246415;56;20947;-66
2023/12/18 08:43:49;;;;;;;9.82;5.85;;;2.40;70.10;;;;;;2267453;56;20946;-66
2023/12/18 08:46:18;;;;;;;8.18;5.20;;;2.40;70.20;;;;;;2260617;56;21422;-67
2023/12/18 08:48:44;;;;;;;10.32;4.50;;;2.50;70.40;;;;;;2262874;56;21523;-67
2023/12/18 08:51:14;;;;;;;8.23;4.72;;;2.50;70.40;;;;;;2490065;54;21025;-67
2023/12/18 08:53:44;;;;;;;8.38;4.40;;;2.50;70.60;;;;;;2264432;56;21412;-66
2023/12/18 08:56:13;;;;;;;9.18;4.72;;;2.50;70.70;;;;;;2251682;55;20974;-67
2023/12/18 08:58:40;;;;;;;8.82;4.55;;;2.60;70.80;;;;;;2489582;55;21774;-66
2023/12/18 09:01:08;;;;;;;8.20;4.35;;;2.60;71.00;;;;;;2260459;56;20966;-67
2023/12/18 09:03:36;;;;;;;8.38;4.30;;;2.60;71.10;;;;;;2261413;56;20994;-67
2023/12/18 09:06:03;;;;;;;6.68;3.65;;;2.70;71.20;;;;;;2260869;56;21872;-67
2023/12/18 09:08:39;;;;;;;6.60;3.80;;;2.70;71.30;;;;;;2271236;56;20963;-66
2023/12/18 09:11:10;;;;;;;7.93;3.90;;;2.70;72.00;;;;;;2264934;55;20951;-66
2023/12/18 09:13:37;;;;;;;8.37;3.50;;;2.80;71.50;;;;;;2496500;54;20963;-67
2023/12/18 09:16:04;;;;;;;7.25;3.90;;;2.80;71.50;;;;;;2264159;55;20931;-67
2023/12/18 09:18:31;;;;;;;7.75;4.05;;;2.90;71.70;;;;;;2489346;55;20943;-67
2023/12/18 09:20:57;;;;;;;7.10;3.50;;;2.90;71.70;;;;;;2495907;54;21018;-67
2023/12/18 09:23:25;;;;;;;7.12;4.00;;;3.00;71.90;;;;;;2488884;55;20995;-67
2023/12/18 09:25:52;;;;;;;8.45;4.62;;;3.10;72.00;;;;;;2463796;55;20973;-67
2023/12/18 09:28:18;;;;;;;9.30;4.53;;;3.10;72.10;;;;;;2473144;54;21054;-67
2023/12/18 09:30:47;;;;;;;8.43;4.47;;;3.10;72.20;;;;;;2261465;56;21026;-67
2023/12/18 09:33:15;;;;;;;9.68;4.82;;;3.20;72.40;;;;;;2261458;56;20986;-67
2023/12/18 09:35:42;;;;;;;9.25;4.60;;;3.20;73.20;;;;;;2488700;54;20983;-67
2023/12/18 09:38:09;;;;;;;9.43;4.93;;;3.30;72.60;;;;;;2261164;56;21397;-67
2023/12/18 09:40:36;;;;;;;9.35;4.65;;;3.40;72.80;;;;;;2490270;55;20932;-67
2023/12/18 09:43:03;;;;;;;10.40;4.75;;;3.40;72.80;;;;;;2261839;56;21026;-67
2023/12/18 09:45:32;;;;;;;9.05;4.57;;;3.50;72.80;;;;;;2497199;54;20939;-68
2023/12/18 09:47:59;;;;;;;10.55;5.62;;;3.60;72.90;;;;;;2537569;54;20992;-68
2023/12/18 09:50:25;;;;;;;7.72;3.95;;;3.60;72.90;;;;;;2301012;55;20982;-68
2023/12/18 09:53:07;;;;;;;11.00;5.20;;;3.70;73.10;;;;;;2297303;55;20967;-69
2023/12/18 09:55:33;;;;;;;7.28;3.92;;;3.80;73.20;;;;;;2295258;55;20995;-68
2023/12/18 09:58:00;;;;;;;8.65;4.53;;;3.80;73.30;;;;;;2496435;54;21012;-68
2023/12/18 10:00:29;;;;;;;7.70;4.00;;;3.90;73.30;;;;;;2301495;55;21508;-68
2023/12/18 10:02:55;;;;;;;9.45;5.35;;;4.00;73.50;;;;;;2536895;54;20972;-68
2023/12/18 10:05:23;;;;;;;10.98;5.65;;;4.00;73.50;;;;;;2537463;54;21742;-68
2023/12/18 10:07:49;;;;;;;7.22;4.00;;;4.10;73.60;;;;;;2537442;54;21349;-69
2023/12/18 10:10:17;;;;;;;8.70;5.12;;;4.20;73.70;;;;;;2300788;56;20988;-69
2023/12/18 10:12:43;;;;;;;9.60;5.20;;;4.30;73.80;;;;;;2537402;54;21024;-69
2023/12/18 10:15:14;;;;;;;7.43;4.45;;;4.30;73.80;;;;;;2537606;54;20963;-69
2023/12/18 10:17:43;;;;;;;9.20;4.93;;;4.40;73.90;;;;;;2527807;54;21013;-69
2023/12/18 10:20:10;;;;;;;10.55;5.10;;;4.50;74.00;;;;;;2528637;54;21687;-70
2023/12/18 10:22:36;;;;;;;9.52;5.07;;;4.50;74.00;;;;;;2489158;55;20955;-70
2023/12/18 10:25:04;;;;;;;10.18;5.28;;;4.60;74.00;;;;;;2266515;55;20943;-70
2023/12/18 10:27:36;;;;;;;12.10;5.83;;;4.70;74.10;;;;;;2495033;55;20992;-70
2023/12/18 10:30:05;;;;;;;9.35;5.28;;;4.70;74.00;;;;;;2489806;55;20934;-70
2023/12/18 10:32:31;;;;;;;12.70;6.00;;;4.80;74.10;;;;;;2488729;55;20939;-71
2023/12/18 10:34:57;;;;;;;10.90;5.97;;;4.90;74.20;;;;;;2489545;55;21892;-70
2023/12/18 10:37:25;;;;;;;10.50;5.80;;;4.90;74.10;;;;;;2266141;56;21522;-70
2023/12/18 10:39:53;;;;;;;9.02;5.25;;;5.00;74.20;;;;;;2259419;56;20976;-69
2023/12/18 10:42:31;;;;;;;10.82;6.07;;;5.10;74.20;;;;;;2250863;56;21023;-71
2023/12/18 10:44:59;;;;;;;11.40;6.15;;;5.10;74.10;;;;;;2489578;55;20946;-71
2023/12/18 10:47:28;;;;;;;11.35;6.65;;;5.20;74.10;;;;;;2268485;56;21007;-70
2023/12/18 10:49:55;;;;;;;11.63;6.03;;;5.30;74.10;;;;;;2247659;56;21508;-71
2023/12/18 10:52:21;;;;;;;11.65;5.57;;;5.30;74.10;;;;;;2490023;55;20970;-70
2023/12/18 10:54:48;;;;;;;10.15;5.55;;;5.30;74.00;;;;;;2261041;55;20953;-70
2023/12/18 10:57:17;;;;;;;9.20;5.32;;;5.40;74.10;;;;;;2490088;54;20943;-70
2023/12/18 10:59:47;;;;;;;10.35;5.85;;;5.50;74.20;;;;;;2251149;55;21031;-71
2023/12/18 11:02:13;;;;;;;11.95;5.70;;;5.50;74.20;;;;;;2489810;54;21330;-71
2023/12/18 11:04:40;;;;;;;13.43;6.28;;;5.60;74.30;;;;;;2489499;55;20987;-71
2023/12/18 11:07:06;;;;;;;13.13;6.43;;;5.70;74.50;;;;;;2261130;55;20925;-70
2023/12/18 11:09:32;;;;;;;10.35;6.18;;;5.70;74.50;;;;;;2489696;55;21062;-71
2023/12/18 11:11:59;;;;;;;11.00;6.00;;;5.80;74.60;;;;;;2489968;55;20967;-70
2023/12/18 11:15:02;;;;;;;14.13;7.12;;;5.90;74.70;;;;;;2266646;56;21421;-70
2023/12/18 11:17:56;;;;;;;12.23;7.30;;;5.90;74.60;;;;;;2261340;55;20986;-71
2023/12/18 11:20:33;;;;;;;11.38;6.15;;;6.00;74.80;;;;;;2496593;55;21046;-71
2023/12/18 11:23:02;;;;;;;10.30;6.25;;;6.10;75.00;;;;;;2261800;55;20947;-71
2023/12/18 11:25:48;;;;;;;11.60;6.53;;;6.10;75.00;;;;;;2264440;55;21516;-70
2023/12/18 11:28:20;;;;;;;11.43;6.20;;;6.20;75.10;;;;;;2265643;55;20999;-71
2023/12/18 11:30:46;;;;;;;10.77;6.05;;;6.30;75.00;;;;;;2260933;55;20935;-70
2023/12/18 11:33:16;;;;;;;11.68;5.97;;;6.40;75.10;;;;;;2489946;55;21006;-71
2023/12/18 11:35:48;;;;;;;11.95;6.32;;;6.40;75.00;;;;;;2440241;55;21006;-71
2023/12/18 11:38:17;;;;;;;11.45;6.50;;;6.50;74.90;;;;;;2477164;55;20956;-70
2023/12/18 11:40:50;;;;;;;9.07;5.30;;;6.60;75.20;;;;;;2261218;56;21051;-71
2023/12/18 11:43:38;;;;;;;10.65;5.70;;;6.60;74.90;;;;;;2249285;54;21934;-71
2023/12/18 11:46:06;;;;;;;13.35;7.00;;;6.70;74.90;;;;;;2243885;56;21820;-71
2023/12/18 11:48:38;;;;;;;9.50;5.60;;;6.80;75.10;;;;;;2261816;56;20986;-70
2023/12/18 11:51:05;;;;;;;10.80;6.28;;;6.80;75.10;;;;;;2261552;55;21065;-71
2023/12/18 11:53:35;;;;;;;11.23;6.65;;;6.90;75.20;;;;;;2489823;55;21010;-71
2023/12/18 11:56:11;;;;;;;11.57;6.75;;;7.00;75.20;;;;;;2496033;55;21038;-71
2023/12/18 11:58:43;;;;;;;11.32;6.12;;;7.00;75.10;;;;;;2517259;54;21534;-71
2023/12/18 12:01:12;;;;;;;11.00;7.05;;;7.10;75.20;;;;;;2507879;55;20987;-70
2023/12/18 12:03:39;;;;;;;12.02;7.18;;;7.10;75.10;;;;;;2477782;55;21773;-71
2023/12/18 12:06:07;;;;;;;11.55;6.80;;;7.10;75.10;;;;;;2501425;55;21722;-71
2023/12/18 12:08:49;;;;;;;12.27;7.15;;;7.20;75.10;;;;;;2521009;55;21422;-71
2023/12/18 12:11:16;;;;;;;12.93;8.00;;;7.30;74.90;;;;;;2287746;56;21047;-71
2023/12/18 12:13:47;;;;;;;13.30;7.95;;;7.30;75.10;;;;;;2521181;55;20928;-71
2023/12/18 12:16:19;;;;;;;15.73;9.52;;;7.40;75.30;;;;;;2490594;55;21121;-71
2023/12/18 12:18:52;;;;;;;;;;;7.40;75.30;;;;;;2493993;54;20948;-71
2023/12/18 12:21:19;;;;;;;13.30;8.20;;;7.50;74.60;;;;;;2261930;55;20154;-71
2023/12/18 12:23:50;;;;;;;13.77;8.07;;;7.60;75.40;;;;;;2453572;54;21772;-70
2023/12/18 12:26:18;;;;;;;14.25;9.07;;;7.60;75.40;;;;;;2485320;55;20976;-71
2023/12/18 12:28:50;;;;;;;12.90;8.00;;;7.70;75.70;;;;;;2480103;55;20927;-71
2023/12/18 12:31:17;;;;;;;14.35;8.82;;;7.70;75.70;;;;;;2262714;56;21036;-70
2023/12/18 12:33:48;;;;;;;16.70;9.50;;;7.80;76.50;;;;;;2261988;55;21467;-71
2023/12/18 12:36:20;;;;;;;15.48;9.52;;;7.80;76.00;;;;;;2481005;55;21207;-71
2023/12/18 12:38:46;;;;;;;16.50;9.90;;;8.00;76.20;;;;;;2484997;55;20942;-70
2023/12/18 12:41:15;;;;;;;13.23;9.05;;;8.00;76.30;;;;;;2254466;55;20931;-71
2023/12/18 12:43:44;;;;;;;15.70;9.68;;;8.10;76.50;;;;;;2436554;56;21470;-71
2023/12/18 12:46:21;;;;;;;14.43;8.30;;;8.20;76.50;;;;;;2267645;55;20928;-71
2023/12/18 12:48:49;;;;;;;18.35;9.90;;;8.20;76.40;;;;;;2496875;54;20943;-71
2023/12/18 12:51:21;;;;;;;12.95;8.13;;;8.30;76.50;;;;;;2490835;55;21020;-70
2023/12/18 12:53:49;;;;;;;13.65;8.65;;;8.40;76.50;;;;;;2488514;55;21004;-71
2023/12/18 12:56:15;;;;;;;14.43;8.85;;;8.50;76.50;;;;;;2496112;55;20960;-71